Time;durP1;ratioP1;P1;durP2;ratioP2;P2;SDS_P1;SDS_P2;PMS_P1;PMS_P2;Temp;Humidity;BMP_temperature;BMP_pressure;BME280_temperature;BME280_humidity;BME280_pressure;Samples;Min_cycle;Max_cycle;Signal;HPM_P1;HPM_P2
2021/12/03 00:01:20;;;;;;;8.57;7.72;;;8.90;99.90;;;;;;5028870;28;20029;-77
2021/12/03 00:03:46;;;;;;;7.93;7.22;;;8.90;99.90;;;;;;5028014;28;20053;-77
2021/12/03 00:06:13;;;;;;;9.80;8.90;;;8.90;99.90;;;;;;5029287;28;20029;-77
2021/12/03 00:08:40;;;;;;;9.63;8.45;;;8.90;99.90;;;;;;5029216;28;20033;-77
2021/12/03 00:11:09;;;;;;;9.90;7.72;;;8.90;99.90;;;;;;5029122;28;20140;-76
2021/12/03 00:13:35;;;;;;;8.70;7.97;;;9.00;99.90;;;;;;5027891;28;20026;-78
2021/12/03 00:16:02;;;;;;;10.05;9.05;;;9.00;99.90;;;;;;5027652;28;20061;-77
2021/12/03 00:18:28;;;;;;;10.35;9.43;;;9.00;99.90;;;;;;5029043;28;20033;-78
2021/12/03 00:20:55;;;;;;;10.23;9.15;;;9.00;99.90;;;;;;5028994;28;20022;-77
2021/12/03 00:23:22;;;;;;;9.65;8.65;;;9.00;99.90;;;;;;5027846;28;20026;-77
2021/12/03 00:25:48;;;;;;;9.07;8.23;;;9.10;99.90;;;;;;5027614;28;20158;-78
2021/12/03 00:28:13;;;;;;;10.32;8.80;;;9.10;99.90;;;;;;5028955;28;20108;-77
2021/12/03 00:30:40;;;;;;;9.50;8.55;;;9.20;99.90;;;;;;5027587;28;20029;-78
2021/12/03 00:33:06;;;;;;;;;;;9.10;99.90;;;;;;5011673;28;20040;-78
2021/12/03 00:35:32;;;;;;;8.70;7.85;;;9.10;99.90;;;;;;5028701;28;19916;-77
2021/12/03 00:37:58;;;;;;;9.95;9.02;;;9.20;99.90;;;;;;5027553;28;20035;-78
2021/12/03 00:40:29;;;;;;;12.48;10.20;;;9.20;99.90;;;;;;5028631;28;20033;-78
2021/12/03 00:42:55;;;;;;;11.75;10.63;;;9.20;99.90;;;;;;5027364;28;20021;-77
2021/12/03 00:45:21;;;;;;;13.68;10.77;;;9.30;99.90;;;;;;5027165;28;20476;-78
2021/12/03 00:47:47;;;;;;;11.07;9.60;;;9.30;99.90;;;;;;5028563;28;20085;-77
2021/12/03 00:50:18;;;;;;;11.30;9.05;;;9.30;99.90;;;;;;5027241;28;20035;-77
2021/12/03 00:52:44;;;;;;;12.05;10.18;;;9.40;99.90;;;;;;5027282;28;20124;-78
2021/12/03 00:55:10;;;;;;;10.88;9.80;;;9.40;99.90;;;;;;5026990;28;20118;-77
2021/12/03 00:57:36;;;;;;;;;;;9.40;99.90;;;;;;5028551;28;20027;-77
2021/12/03 01:00:07;;;;;;;10.50;8.25;;;9.40;99.90;;;;;;5028195;28;19928;-77
2021/12/03 01:02:32;;;;;;;11.73;9.38;;;9.40;99.90;;;;;;5027002;28;20034;-76
2021/12/03 01:04:58;;;;;;;11.35;9.93;;;9.40;99.90;;;;;;5026666;28;20041;-78
2021/12/03 01:07:24;;;;;;;11.52;10.43;;;9.50;99.90;;;;;;5010478;28;20056;-76
2021/12/03 01:09:49;;;;;;;12.63;9.60;;;9.50;99.90;;;;;;5027061;28;20678;-78
2021/12/03 01:12:15;;;;;;;11.95;10.18;;;9.50;99.90;;;;;;5026901;28;20092;-77
2021/12/03 01:14:42;;;;;;;12.63;9.68;;;9.50;99.90;;;;;;5027987;28;20057;-77
2021/12/03 01:17:08;;;;;;;11.02;9.98;;;9.60;99.90;;;;;;5026830;28;20120;-77
2021/12/03 01:19:34;;;;;;;11.85;10.63;;;9.60;99.90;;;;;;5028441;28;20116;-77
2021/12/03 01:21:59;;;;;;;12.25;9.95;;;9.60;99.90;;;;;;5026976;28;20104;-77
2021/12/03 01:24:25;;;;;;;11.20;10.05;;;9.60;99.90;;;;;;5027979;28;20029;-77
2021/12/03 01:26:54;;;;;;;13.48;10.98;;;9.70;99.90;;;;;;5026851;28;20034;-78
2021/12/03 01:29:21;;;;;;;14.60;11.02;;;9.70;99.90;;;;;;5026717;28;20400;-78
2021/12/03 01:31:47;;;;;;;13.35;11.00;;;9.70;99.90;;;;;;5027945;28;20468;-78
2021/12/03 01:34:12;;;;;;;13.27;10.40;;;9.70;99.90;;;;;;5028244;28;20025;-78
2021/12/03 01:36:38;;;;;;;13.27;11.05;;;9.70;99.90;;;;;;5028013;28;20088;-78
2021/12/03 01:39:06;;;;;;;14.20;11.27;;;9.70;99.90;;;;;;5028038;28;20026;-77
2021/12/03 01:41:33;;;;;;;15.57;11.70;;;9.80;99.90;;;;;;5026384;28;20029;-77
2021/12/03 01:44:02;;;;;;;15.98;12.10;;;9.80;99.90;;;;;;5026521;28;20032;-75
2021/12/03 01:46:29;;;;;;;14.98;11.65;;;9.80;99.90;;;;;;5027668;28;20445;-76
2021/12/03 01:48:55;;;;;;;15.98;12.38;;;9.90;99.90;;;;;;5026372;28;20025;-78
2021/12/03 01:51:21;;;;;;;15.50;12.23;;;9.90;99.90;;;;;;5026549;28;20037;-77
2021/12/03 01:53:47;;;;;;;15.02;11.38;;;9.90;99.90;;;;;;5026621;28;20040;-76
2021/12/03 01:56:15;;;;;;;14.32;11.60;;;9.90;99.90;;;;;;5026278;28;20406;-77
2021/12/03 01:58:42;;;;;;;13.88;12.00;;;9.90;99.90;;;;;;5027654;28;20076;-77
2021/12/03 02:01:17;;;;;;;15.20;12.57;;;9.90;99.90;;;;;;5010196;28;20117;-78
2021/12/03 02:03:46;;;;;;;13.50;11.05;;;9.90;99.90;;;;;;5027559;28;20017;-78
2021/12/03 02:06:13;;;;;;;14.10;11.93;;;9.90;99.90;;;;;;5026493;28;20025;-77
2021/12/03 02:08:39;;;;;;;13.93;11.75;;;10.00;99.90;;;;;;5026707;28;20035;-78
2021/12/03 02:11:07;;;;;;;12.27;11.07;;;10.00;99.90;;;;;;5009654;28;20034;-77
2021/12/03 02:13:33;;;;;;;13.90;12.60;;;10.10;99.90;;;;;;5026321;28;20025;-78
2021/12/03 02:15:59;;;;;;;13.13;11.90;;;10.10;99.90;;;;;;5028399;28;20096;-77
2021/12/03 02:18:25;;;;;;;13.77;12.38;;;10.10;99.90;;;;;;5031380;28;20033;-77
2021/12/03 02:20:53;;;;;;;12.02;10.98;;;10.10;99.90;;;;;;5031563;28;20469;-77
2021/12/03 02:23:20;;;;;;;11.60;10.65;;;10.20;99.90;;;;;;5031406;28;20053;-77
2021/12/03 02:25:48;;;;;;;10.50;9.65;;;10.20;99.90;;;;;;5031304;28;20080;-77
2021/12/03 02:28:17;;;;;;;8.55;8.05;;;10.20;99.90;;;;;;5031253;28;20029;-78
2021/12/03 02:30:44;;;;;;;8.10;7.60;;;10.30;99.90;;;;;;5031205;28;20472;-77
2021/12/03 02:33:11;;;;;;;6.85;6.45;;;10.40;99.90;;;;;;5029779;28;20047;-77
2021/12/03 02:35:40;;;;;;;8.18;7.57;;;10.40;99.90;;;;;;5029947;28;20423;-77
2021/12/03 02:38:09;;;;;;;7.50;7.10;;;10.40;99.90;;;;;;5029786;28;20179;-77
2021/12/03 02:40:35;;;;;;;7.85;7.35;;;10.50;99.90;;;;;;5030099;28;20037;-77
2021/12/03 02:43:01;;;;;;;6.68;6.28;;;10.40;99.90;;;;;;5029668;28;20029;-77
2021/12/03 02:45:27;;;;;;;6.43;5.75;;;10.40;99.90;;;;;;5031020;28;20408;-78
2021/12/03 02:47:52;;;;;;;6.30;5.90;;;10.40;99.90;;;;;;5030856;28;20034;-77
2021/12/03 02:50:19;;;;;;;4.60;4.20;;;10.40;99.90;;;;;;5030872;28;20044;-77
2021/12/03 02:52:46;;;;;;;;;;;10.40;99.90;;;;;;5013555;28;20449;-77
2021/12/03 02:55:12;;;;;;;4.80;4.22;;;10.40;99.90;;;;;;5029466;28;20402;-76
2021/12/03 02:57:38;;;;;;;5.03;4.72;;;10.30;99.90;;;;;;5030718;28;20056;-77
2021/12/03 03:00:08;;;;;;;5.15;4.13;;;10.20;99.90;;;;;;5030744;28;20030;-77
2021/12/03 03:02:34;;;;;;;5.00;4.70;;;10.20;99.90;;;;;;5030505;28;20037;-78
2021/12/03 03:04:59;;;;;;;4.72;4.30;;;10.20;99.90;;;;;;5030581;28;20036;-78
2021/12/03 03:07:25;;;;;;;5.90;5.40;;;10.20;99.90;;;;;;5029244;28;20030;-78
2021/12/03 03:09:51;;;;;;;6.13;5.72;;;10.20;99.90;;;;;;5029373;28;20392;-79
2021/12/03 03:12:16;;;;;;;5.80;5.40;;;10.20;99.90;;;;;;5030351;28;20484;-78
2021/12/03 03:14:51;;;;;;;5.50;5.00;;;10.20;99.90;;;;;;5028815;28;20053;-78
2021/12/03 03:17:17;;;;;;;6.90;6.30;;;10.20;99.90;;;;;;5030339;28;20299;-77
2021/12/03 03:19:43;;;;;;;6.65;6.25;;;10.10;99.90;;;;;;5029075;28;20029;-79
2021/12/03 03:22:09;;;;;;;6.63;6.22;;;10.10;99.90;;;;;;5030337;28;20529;-77
2021/12/03 03:24:35;;;;;;;7.18;6.57;;;10.10;99.90;;;;;;5030166;28;20041;-78
2021/12/03 03:27:02;;;;;;;5.85;5.45;;;10.10;99.90;;;;;;5028445;28;20044;-78
2021/12/03 03:29:28;;;;;;;5.88;5.38;;;10.10;99.90;;;;;;5028944;28;20033;-78
2021/12/03 03:31:54;;;;;;;5.70;5.28;;;10.10;99.90;;;;;;5028655;28;20052;-78
2021/12/03 03:34:20;;;;;;;5.80;5.13;;;10.10;99.90;;;;;;5029945;28;20030;-76
2021/12/03 03:36:45;;;;;;;4.97;4.57;;;10.00;99.90;;;;;;5029863;28;20076;-78
2021/12/03 03:39:14;;;;;;;4.53;4.20;;;9.90;99.90;;;;;;5012408;28;20048;-77
2021/12/03 03:41:41;;;;;;;6.68;4.10;;;9.80;99.90;;;;;;5029809;28;20071;-78
2021/12/03 03:44:09;;;;;;;9.43;4.40;;;9.70;99.90;;;;;;5012063;28;20392;-78
2021/12/03 03:46:35;;;;;;;6.25;4.28;;;9.70;99.90;;;;;;5028541;28;20425;-77
2021/12/03 03:49:01;;;;;;;6.25;4.20;;;9.60;99.90;;;;;;5029844;28;20105;-77
2021/12/03 03:51:27;;;;;;;7.45;3.58;;;9.50;99.90;;;;;;5029671;28;20038;-77
2021/12/03 03:53:53;;;;;;;5.22;3.67;;;9.50;99.90;;;;;;5028350;28;20033;-78
2021/12/03 03:56:18;;;;;;;6.35;3.50;;;9.40;99.90;;;;;;5029517;28;20052;-77
2021/12/03 03:58:44;;;;;;;9.32;3.78;;;9.40;99.90;;;;;;5028193;28;20033;-77
2021/12/03 04:01:11;;;;;;;11.30;3.92;;;9.30;99.90;;;;;;5028188;28;20431;-78
2021/12/03 04:03:37;;;;;;;8.23;3.50;;;9.20;99.90;;;;;;5028161;28;20064;-77
2021/12/03 04:06:03;;;;;;;7.75;2.90;;;9.10;99.90;;;;;;5028049;28;20022;-77
2021/12/03 04:08:29;;;;;;;6.47;2.90;;;9.10;99.90;;;;;;5029318;28;20040;-76
2021/12/03 04:10:56;;;;;;;10.77;3.08;;;9.10;99.90;;;;;;5029508;28;20029;-77
2021/12/03 04:13:22;;;;;;;9.23;2.83;;;9.10;99.90;;;;;;5029231;28;20030;-78
2021/12/03 04:15:48;;;;;;;12.52;3.28;;;9.00;99.90;;;;;;5027765;28;20052;-77
2021/12/03 04:18:14;;;;;;;8.90;3.03;;;9.10;99.90;;;;;;5027739;28;20033;-77
2021/12/03 04:20:40;;;;;;;11.30;4.28;;;9.10;99.90;;;;;;5027831;28;20117;-79
2021/12/03 04:23:06;;;;;;;8.18;2.90;;;9.00;99.90;;;;;;5029042;28;20475;-77
2021/12/03 04:25:33;;;;;;;10.20;2.85;;;9.00;99.90;;;;;;5027572;28;20068;-78
2021/12/03 04:27:59;;;;;;;6.60;2.63;;;8.90;99.90;;;;;;5028990;28;20030;-77
2021/12/03 04:30:27;;;;;;;5.75;2.78;;;8.90;99.90;;;;;;5028881;28;20040;-78
2021/12/03 04:32:54;;;;;;;10.60;3.13;;;8.90;99.90;;;;;;5028717;28;20041;-78
2021/12/03 04:35:20;;;;;;;5.95;2.03;;;8.90;99.90;;;;;;5027682;28;20036;-77
2021/12/03 04:37:46;;;;;;;;;;;9.00;99.90;;;;;;5029367;28;20025;-77
2021/12/03 04:40:14;;;;;;;7.57;2.40;;;9.00;99.90;;;;;;5026993;28;19912;-78
2021/12/03 04:42:40;;;;;;;6.05;2.33;;;9.10;99.90;;;;;;5027459;28;20033;-78
2021/12/03 04:45:08;;;;;;;6.97;2.38;;;9.10;99.90;;;;;;5028631;28;20101;-79
2021/12/03 04:47:34;;;;;;;3.53;1.63;;;9.10;99.90;;;;;;5027287;28;20120;-78
2021/12/03 04:50:00;;;;;;;8.18;2.10;;;9.10;99.90;;;;;;5028659;28;20052;-77
2021/12/03 04:52:26;;;;;;;;;;;9.10;99.90;;;;;;5027585;28;20043;-78
2021/12/03 04:54:52;;;;;;;11.93;2.10;;;9.10;99.90;;;;;;5027441;28;20327;-78
2021/12/03 04:57:18;;;;;;;9.05;1.58;;;9.10;99.90;;;;;;5026673;28;20034;-78
2021/12/03 04:59:44;;;;;;;8.82;1.73;;;9.10;99.90;;;;;;5028186;28;20029;-77
2021/12/03 05:02:10;;;;;;;14.30;2.35;;;9.10;99.90;;;;;;5010473;28;20379;-77
2021/12/03 05:04:39;;;;;;;10.13;2.08;;;9.10;99.90;;;;;;5010581;28;20044;-77
2021/12/03 05:09:39;;;;;;;12.38;2.33;;;9.20;99.90;;;;;;5028238;28;20429;-77
2021/12/03 05:12:05;;;;;;;8.00;2.10;;;9.20;99.90;;;;;;5026874;28;20033;-77
2021/12/03 05:14:31;;;;;;;15.15;1.98;;;9.20;99.90;;;;;;5010306;28;20400;-78
2021/12/03 05:16:57;;;;;;;13.70;1.75;;;9.20;99.90;;;;;;5026863;28;20052;-77
2021/12/03 05:19:23;;;;;;;11.65;1.90;;;9.20;99.90;;;;;;5028048;28;20037;-77
2021/12/03 05:21:49;;;;;;;11.90;1.83;;;9.10;99.90;;;;;;5028031;28;20037;-77
2021/12/03 05:24:16;;;;;;;8.50;1.60;;;9.10;99.90;;;;;;5028157;28;20041;-78
2021/12/03 05:26:44;;;;;;;9.70;2.10;;;9.00;99.90;;;;;;5026561;28;20056;-77
2021/12/03 05:29:11;;;;;;;9.35;2.10;;;9.10;99.90;;;;;;5026688;28;20052;-77
2021/12/03 05:31:38;;;;;;;12.10;2.28;;;9.10;99.90;;;;;;5027918;28;20049;-78
2021/12/03 05:34:10;;;;;;;10.82;2.55;;;9.10;99.90;;;;;;5028023;28;20101;-78
2021/12/03 05:36:36;;;;;;;14.18;2.20;;;9.00;99.90;;;;;;5026337;28;20025;-78
2021/12/03 05:39:03;;;;;;;14.00;2.78;;;9.00;99.90;;;;;;5027861;28;20021;-77
2021/12/03 05:41:29;;;;;;;14.18;2.80;;;9.00;99.90;;;;;;5026639;28;20156;-78
2021/12/03 05:43:54;;;;;;;11.38;2.38;;;8.90;99.90;;;;;;5027727;28;20112;-77
2021/12/03 05:46:20;;;;;;;11.13;2.33;;;8.90;99.90;;;;;;5026423;28;20037;-78
2021/12/03 05:48:46;;;;;;;15.48;2.75;;;8.80;99.90;;;;;;5026298;28;20033;-77
2021/12/03 05:51:11;;;;;;;20.15;3.78;;;8.80;99.90;;;;;;5027367;28;20038;-77
2021/12/03 05:53:37;;;;;;;14.82;3.13;;;8.80;99.90;;;;;;5026435;28;20036;-78
2021/12/03 05:56:03;;;;;;;15.80;3.63;;;8.70;99.90;;;;;;5026381;28;20495;-78
2021/12/03 05:58:29;;;;;;;13.43;3.05;;;8.70;99.90;;;;;;5026326;28;20061;-77
2021/12/03 06:00:54;;;;;;;13.27;2.78;;;8.80;99.90;;;;;;5026299;28;20037;-78
2021/12/03 06:03:20;;;;;;;16.95;3.33;;;8.80;99.90;;;;;;5027564;28;20393;-76
2021/12/03 06:05:46;;;;;;;9.32;2.17;;;8.80;99.90;;;;;;5027352;28;20033;-78
2021/12/03 06:08:12;;;;;;;11.07;2.80;;;8.80;99.90;;;;;;5009657;28;20583;-79
2021/12/03 06:10:38;;;;;;;11.18;3.40;;;8.80;99.90;;;;;;5027402;28;20048;-77
2021/12/03 06:13:03;;;;;;;14.63;2.22;;;8.80;99.90;;;;;;5026046;28;20029;-77
2021/12/03 06:15:30;;;;;;;18.63;2.58;;;8.90;99.90;;;;;;5009164;28;20041;-77
2021/12/03 06:17:57;;;;;;;9.68;2.00;;;8.90;99.90;;;;;;5026064;28;20030;-76
2021/12/03 06:20:24;;;;;;;11.85;2.17;;;8.90;99.90;;;;;;5027319;28;20059;-77
2021/12/03 06:22:49;;;;;;;13.38;2.45;;;8.90;99.90;;;;;;5027217;28;20029;-77
2021/12/03 06:25:17;;;;;;;7.28;1.98;;;8.90;99.90;;;;;;5026131;28;20037;-79
2021/12/03 06:27:43;;;;;;;18.60;2.83;;;8.90;99.90;;;;;;5025865;28;20369;-77
2021/12/03 06:30:12;;;;;;;10.23;2.92;;;8.90;99.90;;;;;;5025967;28;20105;-76
2021/12/03 06:32:39;;;;;;;12.38;2.67;;;8.90;99.90;;;;;;5025628;28;20041;-78
2021/12/03 06:35:08;;;;;;;7.78;2.67;;;9.00;99.90;;;;;;5027283;28;20017;-78
2021/12/03 06:37:33;;;;;;;18.48;3.40;;;8.90;99.90;;;;;;5009441;28;20022;-77
2021/12/03 06:40:00;;;;;;;8.85;2.30;;;9.00;99.90;;;;;;5025891;28;20063;-76
2021/12/03 06:42:26;;;;;;;9.43;3.15;;;8.90;99.90;;;;;;5027146;28;20037;-79
2021/12/03 06:44:52;;;;;;;9.43;2.83;;;8.80;99.90;;;;;;5025779;28;20033;-77
2021/12/03 06:47:17;;;;;;;10.68;3.38;;;8.70;99.90;;;;;;5027445;28;20035;-78
2021/12/03 06:49:43;;;;;;;8.45;3.00;;;8.60;99.90;;;;;;5026575;28;20034;-79
2021/12/03 06:52:13;;;;;;;16.55;3.67;;;8.60;99.90;;;;;;5025337;28;20045;-78
2021/12/03 06:54:40;;;;;;;9.82;3.10;;;8.50;99.90;;;;;;5025577;28;20034;-78
2021/12/03 06:57:08;;;;;;;10.40;3.00;;;8.40;99.90;;;;;;5026003;28;20018;-78
2021/12/03 06:59:36;;;;;;;10.18;3.00;;;8.40;99.90;;;;;;5025663;28;20033;-77
2021/12/03 07:02:03;;;;;;;17.75;4.05;;;8.30;99.90;;;;;;5010401;28;20044;-76
2021/12/03 07:04:29;;;;;;;11.10;3.63;;;8.30;99.90;;;;;;5030358;28;20083;-79
2021/12/03 07:06:55;;;;;;;12.25;4.35;;;8.20;99.90;;;;;;5029195;28;20033;-77
2021/12/03 07:09:21;;;;;;;12.10;4.45;;;8.20;99.90;;;;;;5030259;28;20056;-77
2021/12/03 07:11:47;;;;;;;16.75;3.90;;;8.20;99.90;;;;;;5029039;28;20033;-79
2021/12/03 07:14:12;;;;;;;10.88;3.67;;;8.10;99.90;;;;;;5029002;28;20041;-77
2021/12/03 07:16:38;;;;;;;20.00;4.05;;;8.10;99.90;;;;;;5030023;28;20492;-76
2021/12/03 07:19:05;;;;;;;15.15;3.92;;;8.10;99.90;;;;;;5028948;28;20360;-78
2021/12/03 07:21:31;;;;;;;;;;;8.10;99.90;;;;;;5030561;28;20234;-77
2021/12/03 07:23:57;;;;;;;13.98;3.70;;;8.10;99.90;;;;;;5030174;28;19913;-77
2021/12/03 07:26:24;;;;;;;6.20;2.78;;;8.00;99.90;;;;;;5028754;28;20030;-78
2021/12/03 07:28:51;;;;;;;15.80;3.50;;;8.00;99.90;;;;;;5011979;28;20503;-77
2021/12/03 07:31:16;;;;;;;10.68;3.08;;;8.00;99.90;;;;;;5028635;28;20630;-79
2021/12/03 07:33:42;;;;;;;10.65;3.45;;;8.00;99.90;;;;;;5031102;28;20036;-77
2021/12/03 07:36:08;;;;;;;12.85;4.28;;;8.00;99.90;;;;;;5031290;28;20484;-76
2021/12/03 07:38:35;;;;;;;9.48;3.75;;;8.00;99.90;;;;;;5030439;28;20029;-77
2021/12/03 07:41:01;;;;;;;8.95;3.35;;;8.00;99.90;;;;;;5012410;28;20249;-77
2021/12/03 07:43:27;;;;;;;;;;;8.00;99.90;;;;;;5030187;28;20034;-79
2021/12/03 07:45:53;;;;;;;14.35;3.63;;;8.00;99.90;;;;;;5011798;28;19936;-78
2021/12/03 07:48:21;;;;;;;8.63;3.40;;;8.00;99.90;;;;;;5011920;28;20025;-78
2021/12/03 07:50:47;;;;;;;13.15;4.65;;;8.00;99.90;;;;;;5028055;28;20033;-79
2021/12/03 07:53:14;;;;;;;10.15;2.83;;;8.00;99.90;;;;;;5027703;28;20037;-77
2021/12/03 07:55:41;;;;;;;8.73;2.95;;;8.10;99.90;;;;;;5027814;28;20084;-78
2021/12/03 07:58:06;;;;;;;12.57;3.28;;;8.10;99.90;;;;;;5028042;28;20024;-78
2021/12/03 08:00:32;;;;;;;12.68;3.55;;;8.10;99.90;;;;;;5011349;28;20570;-78
2021/12/03 08:02:58;;;;;;;17.50;3.45;;;8.10;99.90;;;;;;5029469;28;20028;-79
2021/12/03 08:05:24;;;;;;;8.18;3.05;;;8.20;99.90;;;;;;5011468;28;20157;-77
2021/12/03 08:07:51;;;;;;;17.40;3.53;;;8.20;99.90;;;;;;5011297;28;20054;-76
2021/12/03 08:10:17;;;;;;;9.27;2.90;;;8.20;99.90;;;;;;5029001;28;20029;-78
2021/12/03 08:12:45;;;;;;;11.95;3.85;;;8.20;99.90;;;;;;5027275;28;20025;-78
2021/12/03 08:15:11;;;;;;;14.73;3.53;;;8.30;99.90;;;;;;5028544;28;20100;-78
2021/12/03 08:17:37;;;;;;;;;;;8.30;99.90;;;;;;5029559;28;20071;-78
2021/12/03 08:20:07;;;;;;;9.68;2.90;;;8.30;99.90;;;;;;5028778;28;19935;-76
2021/12/03 08:22:33;;;;;;;8.98;2.60;;;8.30;99.90;;;;;;5029022;28;20083;-76
2021/12/03 08:24:59;;;;;;;10.48;3.15;;;8.40;99.90;;;;;;5028720;28;20376;-78
2021/12/03 08:27:25;;;;;;;11.18;3.33;;;8.40;99.90;;;;;;5028650;28;20030;-78
2021/12/03 08:29:51;;;;;;;11.88;3.80;;;8.40;99.90;;;;;;5028781;28;20033;-79
2021/12/03 08:32:17;;;;;;;13.23;2.50;;;8.40;99.90;;;;;;5027282;28;20147;-78
2021/12/03 08:34:43;;;;;;;11.40;3.15;;;8.50;99.90;;;;;;5028470;28;20104;-77
2021/12/03 08:37:09;;;;;;;7.00;2.10;;;8.50;99.90;;;;;;5028276;28;20544;-78
2021/12/03 08:39:36;;;;;;;16.33;3.35;;;8.50;99.90;;;;;;5027179;28;20109;-77
2021/12/03 08:42:02;;;;;;;;;;;8.60;99.90;;;;;;4994543;28;20332;-77
2021/12/03 08:44:28;;;;;;;7.97;2.05;;;8.60;99.90;;;;;;5026949;28;19932;-79
2021/12/03 08:46:59;;;;;;;17.90;3.30;;;8.60;99.90;;;;;;5028432;28;20468;-77
2021/12/03 08:49:46;;;;;;;17.75;2.90;;;8.70;99.90;;;;;;5028178;28;20049;-77
2021/12/03 08:54:53;;;;;;;13.20;3.03;;;8.70;99.90;;;;;;5026100;28;20380;-78
2021/12/03 08:57:31;;;;;;;11.82;3.08;;;8.80;99.90;;;;;;5012407;28;20024;-79
2021/12/03 09:00:02;;;;;;;9.00;2.38;;;8.80;99.90;;;;;;5026396;28;20028;-77
2021/12/03 09:02:28;;;;;;;11.05;2.50;;;8.80;99.90;;;;;;5027196;28;20510;-78
2021/12/03 09:04:54;;;;;;;12.70;3.30;;;8.90;99.90;;;;;;5025785;28;20037;-77
2021/12/03 09:07:20;;;;;;;17.95;3.45;;;8.90;99.90;;;;;;5027288;28;20033;-76
2021/12/03 09:09:46;;;;;;;20.83;3.33;;;8.90;99.90;;;;;;5027812;28;20031;-77
2021/12/03 09:12:12;;;;;;;21.92;4.95;;;9.00;99.90;;;;;;5027648;28;20757;-77
2021/12/03 09:14:42;;;;;;;16.65;2.75;;;9.00;99.90;;;;;;5010354;28;20025;-78
2021/12/03 09:19:39;;;;;;;15.07;3.22;;;9.00;99.90;;;;;;5027797;28;20402;-77
2021/12/03 09:22:06;;;;;;;13.77;3.47;;;9.00;99.90;;;;;;5026456;28;20416;-78
2021/12/03 09:24:35;;;;;;;14.77;3.40;;;9.00;99.90;;;;;;5027198;28;20100;-77
2021/12/03 09:27:01;;;;;;;19.38;4.30;;;9.00;99.90;;;;;;5010448;28;20484;-79
2021/12/03 09:29:34;;;;;;;13.30;3.83;;;9.10;99.90;;;;;;5026557;28;20030;-77
2021/12/03 09:32:01;;;;;;;14.20;3.20;;;9.00;99.90;;;;;;5026211;28;20049;-76
2021/12/03 09:34:31;;;;;;;;;;;9.00;99.90;;;;;;5027978;28;20427;-77
2021/12/03 09:36:58;;;;;;;13.55;3.60;;;9.10;99.90;;;;;;5027499;28;19909;-78
2021/12/03 09:39:24;;;;;;;16.35;2.60;;;9.10;99.90;;;;;;5026164;28;20030;-77
2021/12/03 09:41:53;;;;;;;12.52;2.70;;;9.10;99.90;;;;;;5027426;28;20068;-77
2021/12/03 09:44:20;;;;;;;13.30;4.30;;;9.10;99.90;;;;;;5025997;28;20025;-78
2021/12/03 09:46:47;;;;;;;21.08;3.92;;;9.10;99.90;;;;;;5027096;28;20033;-78
2021/12/03 09:49:53;;;;;;;18.42;3.30;;;9.10;99.90;;;;;;5027186;28;20072;-77
2021/12/03 09:52:15;;;;;;;17.00;3.72;;;9.10;99.90;;;;;;5011988;28;20086;-78
2021/12/03 09:54:51;;;;;;;13.00;3.63;;;9.20;99.90;;;;;;5025888;28;20053;-77
2021/12/03 10:16:31;;;;;;;16.00;3.47;;;9.30;99.90;;;;;;5026067;28;19912;-77
2021/12/03 10:19:00;;;;;;;13.05;4.13;;;9.30;99.90;;;;;;5026959;28;20024;-78
2021/12/03 10:43:16;;;;;;;12.95;4.20;;;9.40;99.90;;;;;;5032632;28;20026;-77
2021/12/03 10:51:33;;;;;;;21.60;6.07;;;9.50;99.90;;;;;;5031243;28;20660;-76
2021/12/03 10:59:34;;;;;;;12.52;2.97;;;9.70;99.90;;;;;;5032550;28;20052;-74
2021/12/03 11:08:22;;;;;;;13.05;5.07;;;9.80;99.90;;;;;;5032859;28;20029;-77
2021/12/03 11:48:56;;;;;;;16.05;4.07;;;9.90;99.90;;;;;;5051751;28;20426;-76
2021/12/03 12:24:56;;;;;;;18.15;6.00;;;10.00;99.90;;;;;;5030071;28;20256;-77
2021/12/03 14:08:15;;;;;;;16.65;4.15;;;9.60;99.90;;;;;;5028793;28;20491;-76
2021/12/03 14:43:43;;;;;;;12.55;2.97;;;9.50;99.90;;;;;;5043885;28;20120;-80
2021/12/03 15:08:27;;;;;;;16.48;4.68;;;9.30;99.90;;;;;;5052058;28;20029;-79
2021/12/03 15:31:43;;;;;;;18.70;5.72;;;9.20;99.90;;;;;;5051433;28;20028;-74
2021/12/03 15:34:11;;;;;;;17.60;5.20;;;9.20;99.90;;;;;;5051358;28;20055;-77
2021/12/03 16:04:21;;;;;;;19.27;5.57;;;9.10;99.90;;;;;;5034967;28;20040;-77
2021/12/03 16:12:20;;;;;;;23.17;7.93;;;9.10;99.90;;;;;;5050655;28;20434;-76
2021/12/03 16:20:23;;;;;;;19.75;5.65;;;9.10;99.90;;;;;;5036038;28;20283;-77
2021/12/03 16:23:14;;;;;;;21.00;6.10;;;9.10;99.90;;;;;;5042006;28;20032;-77
2021/12/03 16:44:57;;;;;;;14.75;4.10;;;9.10;99.70;;;;;;5050370;28;20039;-78
2021/12/03 16:52:33;;;;;;;19.20;4.32;;;9.10;99.80;;;;;;5045477;28;20049;-80
2021/12/03 16:55:01;;;;;;;17.00;5.07;;;9.00;99.80;;;;;;5045867;28;20029;-78
2021/12/03 16:57:35;;;;;;;16.58;7.18;;;9.10;99.90;;;;;;5037575;28;20424;-74
2021/12/03 17:03:06;;;;;;;30.02;9.65;;;9.10;99.80;;;;;;5026795;28;20040;-78
2021/12/03 17:06:23;;;;;;;23.35;9.95;;;9.10;99.80;;;;;;5027582;28;20426;-78
2021/12/03 17:14:22;;;;;;;26.38;9.00;;;9.20;99.80;;;;;;5041669;28;20044;-78
2021/12/03 17:50:38;;;;;;;23.23;5.78;;;9.10;99.70;;;;;;5038149;28;20044;-79
2021/12/03 17:58:25;;;;;;;25.00;7.13;;;9.10;99.70;;;;;;5040590;28;20021;-79
2021/12/03 18:11:20;;;;;;;22.92;6.35;;;9.00;99.70;;;;;;5029196;28;20033;-78
2021/12/03 18:16:49;;;;;;;19.27;6.15;;;9.00;99.70;;;;;;5029372;28;20095;-78
2021/12/03 18:47:18;;;;;;;20.67;6.25;;;8.80;99.90;;;;;;5028881;28;20476;-77
2021/12/03 18:56:48;;;;;;;28.20;7.32;;;8.80;99.90;;;;;;5027810;28;20044;-76
2021/12/03 18:59:14;;;;;;;17.50;6.00;;;8.80;99.90;;;;;;5031224;28;20022;-76
2021/12/03 19:01:41;;;;;;;25.50;6.30;;;8.80;99.90;;;;;;5032282;28;20025;-77
2021/12/03 19:04:20;;;;;;;19.05;6.60;;;8.80;99.90;;;;;;5030741;28;20029;-76
2021/12/03 19:09:25;;;;;;;15.48;6.25;;;8.80;99.90;;;;;;5031913;28;20079;-78
2021/12/03 19:12:12;;;;;;;16.90;6.70;;;8.80;99.90;;;;;;5049255;28;20045;-77
2021/12/03 19:14:42;;;;;;;18.27;5.97;;;8.90;99.90;;;;;;5050025;28;20028;-76
2021/12/03 19:17:08;;;;;;;22.50;6.20;;;8.90;99.90;;;;;;5047194;28;20499;-77
2021/12/03 19:19:41;;;;;;;;;;;8.80;99.90;;;;;;5049186;28;20029;-78
2021/12/03 19:22:06;;;;;;;19.30;7.50;;;8.80;99.90;;;;;;5046569;28;19905;-77
2021/12/03 19:24:33;;;;;;;17.17;7.43;;;8.80;99.90;;;;;;5047445;28;20090;-77
2021/12/03 19:26:58;;;;;;;17.63;5.78;;;8.80;99.90;;;;;;5029339;28;20046;-78
2021/12/03 19:29:25;;;;;;;17.90;6.85;;;8.80;99.90;;;;;;5044441;28;20592;-77
2021/12/03 19:31:52;;;;;;;20.85;6.28;;;8.80;99.90;;;;;;5046672;28;20140;-77
2021/12/03 19:34:25;;;;;;;26.25;7.60;;;8.80;99.90;;;;;;5047410;28;20024;-78
2021/12/03 19:36:52;;;;;;;17.65;6.47;;;8.90;99.90;;;;;;5045976;28;20017;-76
2021/12/03 19:39:23;;;;;;;15.05;5.15;;;8.80;99.90;;;;;;5045488;28;20029;-76
2021/12/03 19:44:21;;;;;;;20.10;6.82;;;8.80;99.90;;;;;;5047361;28;20129;-77
2021/12/03 19:46:49;;;;;;;18.27;6.25;;;8.80;99.90;;;;;;5049290;28;20112;-76
2021/12/03 19:49:44;;;;;;;31.90;10.90;;;8.80;99.90;;;;;;5047602;28;20082;-77
2021/12/03 19:52:36;;;;;;;28.23;7.00;;;8.80;99.90;;;;;;5049107;28;20025;-76
2021/12/03 19:55:02;;;;;;;18.25;7.22;;;8.80;99.90;;;;;;5034805;28;20487;-77
2021/12/03 19:57:28;;;;;;;15.65;6.30;;;8.80;99.90;;;;;;5047920;28;20025;-76
2021/12/03 19:59:55;;;;;;;16.80;6.25;;;8.70;99.90;;;;;;5048953;28;20079;-77
2021/12/03 20:02:21;;;;;;;25.00;7.20;;;8.70;99.90;;;;;;5048913;28;20041;-76
2021/12/03 20:04:47;;;;;;;19.20;6.13;;;8.70;99.90;;;;;;5049017;28;20364;-77
2021/12/03 20:07:13;;;;;;;17.20;6.30;;;8.70;99.90;;;;;;5048504;28;20078;-75
2021/12/03 20:12:24;;;;;;;22.20;6.55;;;8.60;99.90;;;;;;5046825;28;20014;-76
2021/12/03 20:14:51;;;;;;;19.17;7.13;;;8.60;99.90;;;;;;5047164;28;20033;-76
2021/12/03 20:17:26;;;;;;;17.13;6.88;;;8.50;99.90;;;;;;5030495;28;20085;-76
2021/12/03 20:19:55;;;;;;;21.05;7.55;;;8.50;99.90;;;;;;5033810;28;20087;-77
2021/12/03 20:22:32;;;;;;;27.30;8.45;;;8.50;99.90;;;;;;5046700;28;20125;-76
2021/12/03 20:27:50;;;;;;;20.00;6.25;;;8.50;99.90;;;;;;5047566;28;20439;-77
2021/12/03 20:31:04;;;;;;;16.02;7.30;;;8.50;99.90;;;;;;5047212;28;20029;-76
2021/12/03 20:33:13;;;;;;;17.50;6.80;;;8.50;99.90;;;;;;5039722;28;20564;-76
2021/12/03 20:38:26;;;;;;;22.77;7.55;;;8.50;99.90;;;;;;5047505;28;20497;-77
2021/12/03 20:40:55;;;;;;;22.45;8.23;;;8.60;99.90;;;;;;5046550;28;20028;-77
2021/12/03 20:46:44;;;;;;;22.25;8.27;;;8.50;99.90;;;;;;5031220;28;20059;-76
2021/12/03 20:52:10;;;;;;;23.58;8.40;;;8.50;99.90;;;;;;5047976;28;20037;-77
2021/12/03 21:10:58;;;;;;;20.35;9.60;;;8.30;99.90;;;;;;5047501;28;20460;-76
2021/12/03 21:13:32;;;;;;;21.30;7.13;;;8.30;99.90;;;;;;5046482;28;20483;-77
2021/12/03 21:21:07;;;;;;;22.83;9.75;;;8.20;99.90;;;;;;5047083;28;20020;-76
2021/12/03 21:23:41;;;;;;;21.88;8.75;;;8.20;99.90;;;;;;5046395;28;20414;-77
2021/12/03 21:26:10;;;;;;;16.83;6.88;;;8.20;99.90;;;;;;5047626;28;20035;-77
2021/12/03 21:28:44;;;;;;;26.50;7.80;;;8.30;99.90;;;;;;5030076;28;20037;-77